sensor_id;sensor_type;location;lat;lon;timestamp;P1;durP1;ratioP1;P2;durP2;ratioP2
45936;SDS011;31649;46.510;6.498;2023-03-05T07:14:07;5.97;;;3.60;;
45936;SDS011;31649;46.510;6.498;2023-03-05T07:16:33;107.13;;;53.47;;
45936;SDS011;31649;46.510;6.498;2023-03-05T07:19:00;85.38;;;41.42;;
45936;SDS011;31649;46.510;6.498;2023-03-05T07:21:29;74.38;;;33.72;;
45936;SDS011;31649;46.510;6.498;2023-03-05T07:23:58;19.50;;;11.65;;
45936;SDS011;31649;46.510;6.498;2023-03-05T07:26:24;22.67;;;13.32;;
45936;SDS011;31649;46.510;6.498;2023-03-05T07:28:50;39.53;;;22.23;;
45936;SDS011;31649;46.510;6.498;2023-03-05T07:31:17;41.28;;;24.40;;
45936;SDS011;31649;46.510;6.498;2023-03-05T07:33:45;42.80;;;23.33;;
45936;SDS011;31649;46.510;6.498;2023-03-05T07:36:12;28.10;;;18.38;;
45936;SDS011;31649;46.510;6.498;2023-03-05T07:38:39;32.00;;;15.43;;
45936;SDS011;31649;46.510;6.498;2023-03-05T07:41:06;23.65;;;16.15;;
45936;SDS011;31649;46.510;6.498;2023-03-05T07:43:36;72.38;;;17.70;;
45936;SDS011;31649;46.510;6.498;2023-03-05T07:46:05;23.65;;;14.07;;
45936;SDS011;31649;46.510;6.498;2023-03-05T07:48:31;24.63;;;13.48;;
45936;SDS011;31649;46.510;6.498;2023-03-05T07:51:04;30.33;;;13.45;;
45936;SDS011;31649;46.510;6.498;2023-03-05T07:53:32;23.90;;;12.57;;
45936;SDS011;31649;46.510;6.498;2023-03-05T07:55:57;17.65;;;11.45;;
45936;SDS011;31649;46.510;6.498;2023-03-05T07:58:23;17.77;;;12.05;;
45936;SDS011;31649;46.510;6.498;2023-03-05T08:00:49;46.33;;;23.42;;
45936;SDS011;31649;46.510;6.498;2023-03-05T08:03:15;56.03;;;31.98;;
45936;SDS011;31649;46.510;6.498;2023-03-05T08:05:40;52.28;;;26.30;;
45936;SDS011;31649;46.510;6.498;2023-03-05T08:08:06;46.15;;;26.73;;
45936;SDS011;31649;46.510;6.498;2023-03-05T08:10:33;40.53;;;21.15;;
45936;SDS011;31649;46.510;6.498;2023-03-05T08:12:59;54.80;;;19.85;;
45936;SDS011;31649;46.510;6.498;2023-03-05T08:15:24;71.47;;;18.88;;
45936;SDS011;31649;46.510;6.498;2023-03-05T08:17:50;41.05;;;18.35;;
45936;SDS011;31649;46.510;6.498;2023-03-05T08:20:15;46.42;;;16.15;;
45936;SDS011;31649;46.510;6.498;2023-03-05T08:22:43;27.83;;;12.63;;
45936;SDS011;31649;46.510;6.498;2023-03-05T08:25:09;33.90;;;12.35;;
45936;SDS011;31649;46.510;6.498;2023-03-05T08:27:42;37.65;;;12.02;;
45936;SDS011;31649;46.510;6.498;2023-03-05T08:30:13;21.73;;;11.85;;
45936;SDS011;31649;46.510;6.498;2023-03-05T08:32:41;41.88;;;11.60;;
45936;SDS011;31649;46.510;6.498;2023-03-05T08:35:07;36.22;;;11.43;;
45936;SDS011;31649;46.510;6.498;2023-03-05T08:37:33;52.38;;;12.65;;
45936;SDS011;31649;46.510;6.498;2023-03-05T08:39:59;34.47;;;10.95;;
45936;SDS011;31649;46.510;6.498;2023-03-05T08:42:25;39.13;;;10.82;;
45936;SDS011;31649;46.510;6.498;2023-03-05T08:44:50;27.98;;;11.57;;
45936;SDS011;31649;46.510;6.498;2023-03-05T08:47:16;33.03;;;9.13;;
45936;SDS011;31649;46.510;6.498;2023-03-05T08:49:43;19.33;;;8.77;;
45936;SDS011;31649;46.510;6.498;2023-03-05T08:52:08;43.08;;;11.10;;
45936;SDS011;31649;46.510;6.498;2023-03-05T08:54:35;36.08;;;14.90;;
45936;SDS011;31649;46.510;6.498;2023-03-05T08:57:01;36.33;;;15.02;;
45936;SDS011;31649;46.510;6.498;2023-03-05T08:59:27;42.65;;;13.65;;
45936;SDS011;31649;46.510;6.498;2023-03-05T09:01:53;32.05;;;12.77;;
45936;SDS011;31649;46.510;6.498;2023-03-05T09:04:19;53.65;;;14.90;;
45936;SDS011;31649;46.510;6.498;2023-03-05T09:06:44;48.00;;;12.38;;
45936;SDS011;31649;46.510;6.498;2023-03-05T09:09:10;48.15;;;12.48;;
45936;SDS011;31649;46.510;6.498;2023-03-05T09:11:37;48.85;;;11.63;;
45936;SDS011;31649;46.510;6.498;2023-03-05T09:14:04;46.45;;;9.68;;
45936;SDS011;31649;46.510;6.498;2023-03-05T09:16:30;39.08;;;10.20;;
45936;SDS011;31649;46.510;6.498;2023-03-05T09:18:56;34.53;;;10.38;;
45936;SDS011;31649;46.510;6.498;2023-03-05T09:21:23;37.97;;;9.63;;
45936;SDS011;31649;46.510;6.498;2023-03-05T09:23:48;44.17;;;10.88;;
45936;SDS011;31649;46.510;6.498;2023-03-05T09:26:14;45.33;;;9.40;;
45936;SDS011;31649;46.510;6.498;2023-03-05T09:28:43;58.30;;;10.10;;
45936;SDS011;31649;46.510;6.498;2023-03-05T09:31:09;57.65;;;8.60;;
45936;SDS011;31649;46.510;6.498;2023-03-05T09:33:36;40.63;;;8.85;;
45936;SDS011;31649;46.510;6.498;2023-03-05T09:36:03;62.30;;;25.20;;
45936;SDS011;31649;46.510;6.498;2023-03-05T09:38:30;126.38;;;53.55;;
45936;SDS011;31649;46.510;6.498;2023-03-05T09:41:06;107.00;;;55.05;;
45936;SDS011;31649;46.510;6.498;2023-03-05T09:46:23;82.57;;;27.63;;
45936;SDS011;31649;46.510;6.498;2023-03-05T09:48:51;64.68;;;24.27;;
45936;SDS011;31649;46.510;6.498;2023-03-05T09:51:37;57.35;;;19.25;;
45936;SDS011;31649;46.510;6.498;2023-03-05T09:54:09;57.53;;;21.58;;
45936;SDS011;31649;46.510;6.498;2023-03-05T09:56:40;40.45;;;16.92;;
45936;SDS011;31649;46.510;6.498;2023-03-05T09:59:27;59.08;;;17.17;;
45936;SDS011;31649;46.510;6.498;2023-03-05T10:04:43;31.33;;;16.15;;
45936;SDS011;31649;46.510;6.498;2023-03-05T10:07:14;38.95;;;14.38;;
45936;SDS011;31649;46.510;6.498;2023-03-05T10:12:46;48.30;;;14.43;;
45936;SDS011;31649;46.510;6.498;2023-03-05T10:15:18;26.58;;;12.18;;
45936;SDS011;31649;46.510;6.498;2023-03-05T10:20:34;42.20;;;11.07;;
45936;SDS011;31649;46.510;6.498;2023-03-05T10:26:11;29.50;;;11.82;;
45936;SDS011;31649;46.510;6.498;2023-03-05T10:31:55;83.55;;;59.55;;
45936;SDS011;31649;46.510;6.498;2023-03-05T10:37:36;112.30;;;82.60;;
45936;SDS011;31649;46.510;6.498;2023-03-05T10:45:55;110.60;;;93.32;;
45936;SDS011;31649;46.510;6.498;2023-03-05T10:56:20;184.75;;;153.07;;
45936;SDS011;31649;46.510;6.498;2023-03-05T10:58:47;108.18;;;85.85;;
45936;SDS011;31649;46.510;6.498;2023-03-05T11:03:50;70.25;;;62.92;;
45936;SDS011;31649;46.510;6.498;2023-03-05T11:06:28;102.65;;;83.70;;
45936;SDS011;31649;46.510;6.498;2023-03-05T11:09:15;116.03;;;65.40;;
45936;SDS011;31649;46.510;6.498;2023-03-05T11:15:27;54.95;;;47.00;;
45936;SDS011;31649;46.510;6.498;2023-03-05T11:17:32;100.97;;;48.05;;
45936;SDS011;31649;46.510;6.498;2023-03-05T11:22:52;71.35;;;38.58;;
45936;SDS011;31649;46.510;6.498;2023-03-05T11:28:25;74.43;;;42.50;;
45936;SDS011;31649;46.510;6.498;2023-03-05T11:33:53;36.38;;;26.30;;
45936;SDS011;31649;46.510;6.498;2023-03-05T11:36:27;46.58;;;27.30;;
45936;SDS011;31649;46.510;6.498;2023-03-05T11:44:23;68.05;;;23.70;;
45936;SDS011;31649;46.510;6.498;2023-03-05T11:46:50;70.55;;;30.83;;
45936;SDS011;31649;46.510;6.498;2023-03-05T11:49:20;95.97;;;29.35;;
45936;SDS011;31649;46.510;6.498;2023-03-05T11:51:59;49.10;;;25.45;;
45936;SDS011;31649;46.510;6.498;2023-03-05T11:54:46;53.15;;;21.60;;
45936;SDS011;31649;46.510;6.498;2023-03-05T11:57:27;48.63;;;22.60;;
45936;SDS011;31649;46.510;6.498;2023-03-05T11:59:57;56.65;;;23.33;;
45936;SDS011;31649;46.510;6.498;2023-03-05T12:02:25;40.00;;;22.55;;
45936;SDS011;31649;46.510;6.498;2023-03-05T12:04:52;40.70;;;21.45;;
45936;SDS011;31649;46.510;6.498;2023-03-05T12:07:23;45.97;;;19.33;;
45936;SDS011;31649;46.510;6.498;2023-03-05T12:09:57;28.70;;;19.88;;
45936;SDS011;31649;46.510;6.498;2023-03-05T12:12:36;35.65;;;18.33;;
45936;SDS011;31649;46.510;6.498;2023-03-05T12:23:14;24.08;;;13.82;;
45936;SDS011;31649;46.510;6.498;2023-03-05T12:25:47;87.20;;;19.73;;
45936;SDS011;31649;46.510;6.498;2023-03-05T12:28:15;61.95;;;19.35;;
45936;SDS011;31649;46.510;6.498;2023-03-05T12:31:00;35.45;;;14.02;;
45936;SDS011;31649;46.510;6.498;2023-03-05T12:38:47;130.93;;;17.33;;
45936;SDS011;31649;46.510;6.498;2023-03-05T12:44:21;53.75;;;14.73;;
45936;SDS011;31649;46.510;6.498;2023-03-05T12:46:45;31.40;;;7.88;;
45936;SDS011;31649;46.510;6.498;2023-03-05T12:49:38;38.53;;;9.80;;
45936;SDS011;31649;46.510;6.498;2023-03-05T12:52:12;155.50;;;18.33;;
45936;SDS011;31649;46.510;6.498;2023-03-05T12:54:53;35.00;;;7.75;;
45936;SDS011;31649;46.510;6.498;2023-03-05T12:57:42;110.60;;;17.63;;
45936;SDS011;31649;46.510;6.498;2023-03-05T13:00:10;77.82;;;10.50;;
45936;SDS011;31649;46.510;6.498;2023-03-05T13:02:45;100.40;;;13.80;;
45936;SDS011;31649;46.510;6.498;2023-03-05T13:05:23;72.22;;;10.25;;
45936;SDS011;31649;46.510;6.498;2023-03-05T13:07:53;83.13;;;11.40;;
45936;SDS011;31649;46.510;6.498;2023-03-05T13:13:03;32.95;;;7.63;;
45936;SDS011;31649;46.510;6.498;2023-03-05T13:15:29;50.55;;;6.95;;
45936;SDS011;31649;46.510;6.498;2023-03-05T13:17:56;32.22;;;5.97;;
